Time;durP1;ratioP1;P1;durP2;ratioP2;P2;SDS_P1;SDS_P2;PMS_P1;PMS_P2;Temp;Humidity;BMP_temperature;BMP_pressure;BME280_temperature;BME280_humidity;BME280_pressure;Samples;Min_cycle;Max_cycle;Signal;HPM_P1;HPM_P2
2022/07/16 00:04:00;;;;;;;4.77;2.30;;;19.10;59.20;;;;;;5032537;28;20703;-76
2022/07/16 00:06:28;;;;;;;4.13;1.33;;;19.00;59.70;;;;;;5034295;28;20564;-76
2022/07/16 00:08:55;;;;;;;2.83;1.30;;;19.00;59.50;;;;;;5016213;28;21159;-76
2022/07/16 00:11:22;;;;;;;2.20;1.00;;;19.00;59.80;;;;;;5033588;28;20568;-77
2022/07/16 00:13:48;;;;;;;2.17;1.00;;;19.00;60.00;;;;;;5033617;28;20717;-76
2022/07/16 00:16:15;;;;;;;3.50;1.00;;;19.00;60.40;;;;;;5032966;28;20561;-76
2022/07/16 00:21:26;;;;;;;2.57;0.90;;;18.90;61.00;;;;;;5033311;28;20567;-76
2022/07/16 00:23:51;;;;;;;5.87;0.90;;;18.80;61.20;;;;;;5032313;28;20573;-76
2022/07/16 00:26:18;;;;;;;4.73;1.00;;;18.80;61.70;;;;;;5033048;28;20569;-76
2022/07/16 00:28:45;;;;;;;1.97;0.97;;;18.80;62.20;;;;;;5033914;28;20228;-76
2022/07/16 00:31:11;;;;;;;2.43;1.10;;;18.80;62.50;;;;;;5033188;28;20568;-76
2022/07/16 00:33:37;;;;;;;2.77;1.00;;;18.70;62.90;;;;;;5033383;28;20618;-76
2022/07/16 00:36:03;;;;;;;3.83;1.20;;;18.70;64.20;;;;;;5032532;28;20584;-76
2022/07/16 00:38:29;;;;;;;2.97;0.80;;;18.70;63.80;;;;;;5033261;28;20675;-76
2022/07/16 00:40:55;;;;;;;5.07;0.80;;;18.70;64.20;;;;;;5032888;28;20653;-76
2022/07/16 00:43:21;;;;;;;2.43;0.80;;;18.70;64.50;;;;;;5033105;28;20181;-76
2022/07/16 00:45:47;;;;;;;3.47;1.07;;;18.60;64.90;;;;;;5032519;28;20596;-76
2022/07/16 00:48:13;;;;;;;2.40;1.00;;;18.60;65.30;;;;;;5033236;28;20608;-76
2022/07/16 00:50:39;;;;;;;3.70;1.33;;;18.60;65.80;;;;;;5031584;28;20606;-76
2022/07/16 00:53:08;;;;;;;4.83;1.43;;;18.60;66.00;;;;;;5032006;28;20225;-76
2022/07/16 00:55:34;;;;;;;3.87;1.13;;;18.50;66.40;;;;;;5032772;28;20588;-76
2022/07/16 00:58:00;;;;;;;4.03;1.40;;;18.50;66.50;;;;;;5032595;28;20614;-76
2022/07/16 01:00:28;;;;;;;3.83;1.07;;;18.50;67.00;;;;;;5032609;28;20925;-76
2022/07/16 01:02:56;;;;;;;4.90;1.40;;;18.40;67.30;;;;;;5032642;28;20571;-76
2022/07/16 01:05:22;;;;;;;4.13;1.33;;;18.40;67.90;;;;;;5032354;28;20991;-76
2022/07/16 01:07:48;;;;;;;4.93;1.63;;;18.40;68.30;;;;;;5032678;28;20667;-76
2022/07/16 01:10:14;;;;;;;3.37;0.90;;;18.40;68.80;;;;;;5031203;28;20576;-76
2022/07/16 01:12:41;;;;;;;5.27;1.40;;;18.40;69.90;;;;;;5032390;28;20565;-76
2022/07/16 01:15:07;;;;;;;4.40;1.30;;;18.30;69.40;;;;;;5032020;28;20634;-76
2022/07/16 01:17:32;;;;;;;2.30;1.30;;;18.30;69.70;;;;;;5032640;28;20596;-76
2022/07/16 01:19:58;;;;;;;3.00;1.37;;;18.30;70.00;;;;;;5032221;28;21100;-76
2022/07/16 01:22:25;;;;;;;2.03;1.00;;;18.30;70.40;;;;;;5032305;28;20602;-76
2022/07/16 01:24:52;;;;;;;3.73;1.00;;;18.30;70.80;;;;;;5031763;28;20193;-76
2022/07/16 01:27:19;;;;;;;3.30;1.10;;;18.20;71.10;;;;;;5014172;28;20622;-77
2022/07/16 01:29:46;;;;;;;3.03;1.00;;;18.20;71.60;;;;;;5031939;28;20591;-76
2022/07/16 01:32:11;;;;;;;2.23;0.90;;;18.20;71.90;;;;;;5030911;28;20579;-76
2022/07/16 01:34:38;;;;;;;3.43;1.00;;;18.10;72.20;;;;;;5031745;28;20632;-76
2022/07/16 01:37:06;;;;;;;3.73;1.00;;;18.10;72.50;;;;;;5032043;28;20599;-76
2022/07/16 01:39:35;;;;;;;1.90;0.90;;;18.00;73.00;;;;;;5032163;28;20599;-76
2022/07/16 01:42:03;;;;;;;3.10;1.10;;;18.00;73.40;;;;;;5032224;28;20557;-76
2022/07/16 01:44:31;;;;;;;2.93;1.40;;;18.00;73.70;;;;;;5031597;28;20600;-76
2022/07/16 01:46:58;;;;;;;3.10;1.00;;;18.00;74.00;;;;;;5032000;28;20564;-76
2022/07/16 01:49:24;;;;;;;2.37;1.40;;;18.00;74.40;;;;;;5030865;28;20607;-76
2022/07/16 01:51:51;;;;;;;2.67;1.10;;;17.90;74.70;;;;;;5014149;28;20577;-76
2022/07/16 01:54:17;;;;;;;2.00;1.00;;;17.90;75.00;;;;;;5030263;28;20638;-76
2022/07/16 01:56:43;;;;;;;2.50;1.00;;;17.80;75.30;;;;;;5031697;28;20567;-76
2022/07/16 01:59:08;;;;;;;4.33;1.57;;;17.80;75.90;;;;;;5030659;28;20949;-76
2022/07/16 02:01:34;;;;;;;3.60;1.00;;;17.80;76.40;;;;;;5031468;28;20564;-76
2022/07/16 02:04:00;;;;;;;4.27;1.90;;;17.80;76.70;;;;;;5013422;28;20703;-76
2022/07/16 02:06:26;;;;;;;2.67;1.00;;;17.70;76.90;;;;;;5031528;28;20572;-76
2022/07/16 02:08:53;;;;;;;5.00;1.50;;;17.70;77.50;;;;;;5028548;28;20596;-76
2022/07/16 02:11:19;;;;;;;4.25;1.00;;;17.70;77.90;;;;;;5019387;28;20249;-76
2022/07/16 02:13:45;;;;;;;2.77;1.20;;;17.60;78.10;;;;;;5031057;28;20201;-76
2022/07/16 02:16:11;;;;;;;2.40;1.10;;;17.60;79.50;;;;;;5030743;28;20599;-76
2022/07/16 02:18:37;;;;;;;2.87;0.90;;;17.60;79.20;;;;;;5031798;28;20575;-76
2022/07/16 02:21:05;;;;;;;5.47;1.20;;;17.60;79.70;;;;;;5046588;28;20591;-76
2022/07/16 02:23:31;;;;;;;2.30;1.00;;;17.50;80.10;;;;;;5031867;28;20923;-77
2022/07/16 02:25:56;;;;;;;2.67;1.33;;;17.50;80.30;;;;;;5022109;28;20671;-77
2022/07/16 02:28:22;;;;;;;4.00;1.20;;;17.50;80.80;;;;;;5023697;28;20547;-77
2022/07/16 02:30:49;;;;;;;3.30;1.00;;;17.50;81.20;;;;;;5022968;28;20586;-77
2022/07/16 02:33:17;;;;;;;1.90;0.90;;;17.50;81.60;;;;;;5031414;28;20707;-77
2022/07/16 02:35:44;;;;;;;2.50;1.00;;;17.50;81.90;;;;;;5031127;28;20584;-77
2022/07/16 02:38:12;;;;;;;6.57;1.10;;;17.50;82.40;;;;;;5031507;28;20572;-77
2022/07/16 02:40:38;;;;;;;1.70;0.70;;;17.50;82.80;;;;;;5030968;28;20568;-77
2022/07/16 02:43:06;;;;;;;3.40;1.67;;;17.50;83.10;;;;;;5031298;28;20577;-77
2022/07/16 02:45:34;;;;;;;4.47;1.03;;;17.50;83.70;;;;;;5030777;28;20596;-77
2022/07/16 02:48:00;;;;;;;5.33;1.00;;;17.50;83.90;;;;;;5029840;28;20564;-77
2022/07/16 02:50:27;;;;;;;2.90;0.87;;;17.50;84.00;;;;;;5030999;28;20663;-77
2022/07/16 02:52:53;;;;;;;2.27;1.27;;;17.50;84.50;;;;;;5031518;28;20616;-77
2022/07/16 02:55:19;;;;;;;3.20;0.90;;;17.50;84.80;;;;;;5031913;28;20608;-77
2022/07/16 02:57:44;;;;;;;1.60;0.90;;;17.50;85.40;;;;;;5031821;28;20166;-77
2022/07/16 03:00:13;;;;;;;1.60;0.80;;;17.60;85.70;;;;;;5032342;28;20560;-77
2022/07/16 03:02:39;;;;;;;1.90;0.90;;;17.60;86.10;;;;;;5030412;28;20194;-77
2022/07/16 03:05:05;;;;;;;2.20;0.93;;;17.60;86.10;;;;;;5027492;28;20651;-77
2022/07/16 03:07:32;;;;;;;2.33;1.07;;;17.60;86.40;;;;;;5031119;28;20910;-77
2022/07/16 03:09:57;;;;;;;2.87;1.00;;;17.60;86.60;;;;;;5030427;28;20576;-77
2022/07/16 03:12:23;;;;;;;2.67;0.90;;;17.60;86.60;;;;;;5030040;28;20580;-77
2022/07/16 03:14:49;;;;;;;1.80;0.90;;;17.60;86.80;;;;;;5030576;28;20740;-78
2022/07/16 03:17:15;;;;;;;2.83;1.03;;;17.60;86.90;;;;;;5031111;28;20197;-77
2022/07/16 03:19:41;;;;;;;2.00;0.90;;;17.60;87.10;;;;;;5030584;28;20648;-77
2022/07/16 03:22:07;;;;;;;1.70;1.17;;;17.50;87.50;;;;;;5031177;28;20196;-77
2022/07/16 03:24:33;;;;;;;2.37;0.90;;;17.50;88.00;;;;;;5030319;28;20208;-77
2022/07/16 03:26:59;;;;;;;1.90;1.20;;;17.50;88.60;;;;;;5032942;28;20731;-77
2022/07/16 03:29:25;;;;;;;2.60;1.50;;;17.50;88.90;;;;;;5035046;28;21169;-77
2022/07/16 03:31:51;;;;;;;2.70;1.00;;;17.60;89.40;;;;;;5035316;28;20223;-77
2022/07/16 03:34:16;;;;;;;1.80;1.00;;;17.60;89.70;;;;;;5034612;28;20740;-77
2022/07/16 03:36:42;;;;;;;2.60;0.97;;;17.60;89.90;;;;;;5033329;28;20686;-77
2022/07/16 03:39:08;;;;;;;2.87;1.40;;;17.70;90.00;;;;;;5034439;28;20169;-77
2022/07/16 03:41:36;;;;;;;3.07;1.10;;;17.70;90.00;;;;;;5034144;28;20564;-77
2022/07/16 03:44:05;;;;;;;3.37;1.10;;;17.70;90.20;;;;;;5049074;28;20580;-77
2022/07/16 03:46:31;;;;;;;1.73;0.90;;;17.80;90.30;;;;;;5034505;28;20579;-77
2022/07/16 03:48:58;;;;;;;3.27;1.30;;;17.90;90.40;;;;;;5034388;28;20568;-77
2022/07/16 03:51:24;;;;;;;2.63;1.27;;;17.90;90.40;;;;;;5032701;28;20658;-77
2022/07/16 03:53:50;;;;;;;2.23;1.00;;;18.00;90.50;;;;;;5033799;28;20616;-77
2022/07/16 03:56:16;;;;;;;1.80;1.10;;;18.00;90.50;;;;;;5033519;28;21174;-77
2022/07/16 03:58:42;;;;;;;1.30;0.80;;;18.10;90.50;;;;;;5033922;28;20633;-77
2022/07/16 04:01:09;;;;;;;3.50;1.07;;;18.10;90.50;;;;;;5033547;28;20575;-78
2022/07/16 04:03:36;;;;;;;3.50;1.20;;;18.20;90.50;;;;;;5033993;28;20643;-77
2022/07/16 04:06:02;;;;;;;2.33;1.20;;;18.20;90.50;;;;;;5033377;28;20707;-77
2022/07/16 04:08:29;;;;;;;3.70;1.20;;;18.20;90.50;;;;;;5034583;28;20587;-77
2022/07/16 04:10:55;;;;;;;2.73;0.90;;;18.20;90.50;;;;;;5033869;28;20571;-77
2022/07/16 04:13:20;;;;;;;1.70;1.00;;;18.30;90.70;;;;;;5032478;28;20631;-77
2022/07/16 04:15:46;;;;;;;1.90;1.00;;;18.30;90.80;;;;;;5033160;28;20933;-77
2022/07/16 04:18:12;;;;;;;1.90;1.10;;;18.30;90.80;;;;;;5032422;28;20181;-77
2022/07/16 04:20:38;;;;;;;6.60;1.33;;;18.40;90.90;;;;;;5033356;28;20699;-77
2022/07/16 04:23:04;;;;;;;3.50;1.20;;;18.40;90.90;;;;;;5032405;28;20722;-77
2022/07/16 04:25:30;;;;;;;4.57;1.00;;;18.40;90.90;;;;;;5031500;28;20205;-77
2022/07/16 04:27:55;;;;;;;2.40;1.27;;;18.50;90.90;;;;;;5032331;28;20541;-77
2022/07/16 04:30:21;;;;;;;2.37;1.10;;;18.50;90.90;;;;;;5033212;28;20567;-77
2022/07/16 04:32:48;;;;;;;1.57;0.80;;;18.50;91.00;;;;;;5033302;28;20173;-77
2022/07/16 04:35:15;;;;;;;2.47;1.10;;;18.60;91.00;;;;;;5032830;28;20686;-77
2022/07/16 04:37:41;;;;;;;2.57;1.07;;;18.60;91.10;;;;;;5031688;28;20573;-77
2022/07/16 04:40:08;;;;;;;2.80;1.00;;;18.70;91.10;;;;;;5034931;28;20924;-77
2022/07/16 04:42:42;;;;;;;4.30;1.30;;;18.70;91.10;;;;;;5035934;28;20591;-77
2022/07/16 04:45:09;;;;;;;1.83;0.90;;;18.80;91.30;;;;;;5044614;28;20628;-77
2022/07/16 04:47:35;;;;;;;2.20;1.00;;;18.80;91.20;;;;;;5039487;28;20577;-76
2022/07/16 04:50:01;;;;;;;2.77;0.80;;;18.80;91.10;;;;;;5037136;28;20981;-77
2022/07/16 04:52:27;;;;;;;3.00;1.10;;;18.90;91.20;;;;;;5036122;28;20174;-77
2022/07/16 04:54:53;;;;;;;4.23;0.97;;;18.90;91.20;;;;;;5034863;28;20990;-77
2022/07/16 04:57:18;;;;;;;2.47;1.23;;;19.00;91.20;;;;;;5036045;28;20561;-77
2022/07/16 04:59:44;;;;;;;2.47;0.90;;;19.00;91.10;;;;;;5034855;28;20184;-77
2022/07/16 05:04:54;;;;;;;4.60;1.00;;;19.10;91.20;;;;;;5032650;28;20213;-77
2022/07/16 05:07:20;;;;;;;1.70;1.00;;;19.10;91.20;;;;;;5031945;28;20581;-76
2022/07/16 05:09:45;;;;;;;2.60;1.20;;;19.20;91.20;;;;;;5032975;28;20177;-77
2022/07/16 05:12:11;;;;;;;2.13;0.90;;;19.20;91.10;;;;;;5031845;28;20180;-77
2022/07/16 05:14:37;;;;;;;4.93;1.10;;;19.30;91.20;;;;;;5032656;28;20207;-77
2022/07/16 05:17:03;;;;;;;2.17;0.83;;;19.30;91.10;;;;;;5033245;28;20204;-76
2022/07/16 05:19:28;;;;;;;3.40;1.40;;;19.30;91.00;;;;;;5032818;28;20253;-77
2022/07/16 05:21:54;;;;;;;3.60;0.97;;;19.40;91.10;;;;;;5033559;28;20220;-76
2022/07/16 05:24:20;;;;;;;1.90;0.90;;;19.40;91.10;;;;;;5032506;28;20204;-77
2022/07/16 05:26:46;;;;;;;3.30;0.90;;;19.50;91.00;;;;;;5032506;28;20265;-77
2022/07/16 05:29:11;;;;;;;2.33;0.73;;;19.50;91.00;;;;;;5032640;28;20209;-77
2022/07/16 05:31:37;;;;;;;2.10;1.00;;;19.50;91.00;;;;;;5030841;28;20205;-77
2022/07/16 05:34:03;;;;;;;4.33;1.10;;;19.60;91.00;;;;;;5047111;28;20267;-77
2022/07/16 05:36:28;;;;;;;3.13;1.43;;;19.60;90.90;;;;;;5032218;28;20173;-77
2022/07/16 05:38:54;;;;;;;2.37;0.97;;;19.60;90.90;;;;;;5031056;28;20182;-77
2022/07/16 05:41:20;;;;;;;4.90;1.33;;;19.60;90.90;;;;;;5031981;28;20232;-77
2022/07/16 05:43:46;;;;;;;2.20;1.00;;;19.70;91.00;;;;;;5031983;28;20573;-77
2022/07/16 05:46:12;;;;;;;2.50;1.20;;;19.70;91.00;;;;;;5031615;28;20181;-77
2022/07/16 05:48:38;;;;;;;2.77;1.33;;;19.80;91.00;;;;;;5031437;28;20227;-77
2022/07/16 05:51:04;;;;;;;2.30;0.97;;;19.90;91.10;;;;;;5029929;28;20667;-77
2022/07/16 05:53:29;;;;;;;2.40;1.00;;;20.00;91.20;;;;;;5031857;28;20288;-77
2022/07/16 05:55:55;;;;;;;2.33;1.10;;;20.10;91.10;;;;;;5031486;28;20592;-77
2022/07/16 05:58:21;;;;;;;4.13;1.30;;;20.20;91.10;;;;;;5032591;28;20170;-77
2022/07/16 06:00:47;;;;;;;3.40;1.30;;;20.30;91.10;;;;;;5030827;28;20173;-75
2022/07/16 06:03:12;;;;;;;2.97;1.40;;;20.50;91.10;;;;;;5031422;28;20197;-76
2022/07/16 06:05:38;;;;;;;3.70;1.30;;;20.60;91.00;;;;;;5031133;28;20600;-76
2022/07/16 06:08:04;;;;;;;3.53;1.10;;;20.80;90.80;;;;;;5031790;28;20196;-76
2022/07/16 06:10:30;;;;;;;4.00;1.30;;;20.80;90.60;;;;;;5031378;28;20177;-76
2022/07/16 06:12:57;;;;;;;2.47;1.10;;;20.90;90.40;;;;;;5031612;28;20201;-76
2022/07/16 06:15:23;;;;;;;4.07;1.00;;;21.00;90.40;;;;;;5031103;28;20597;-76
2022/07/16 06:17:49;;;;;;;4.33;1.07;;;21.10;90.30;;;;;;5030257;28;20700;-76
2022/07/16 06:20:15;;;;;;;4.23;1.10;;;21.20;90.30;;;;;;5031284;28;20580;-76
2022/07/16 06:22:40;;;;;;;2.00;1.17;;;21.30;90.30;;;;;;5031632;28;20170;-76
2022/07/16 06:25:07;;;;;;;2.37;1.17;;;21.40;90.20;;;;;;5030781;28;20964;-76
2022/07/16 06:27:32;;;;;;;2.17;1.07;;;21.50;90.10;;;;;;5031477;28;20175;-76
2022/07/16 06:30:03;;;;;;;2.23;1.30;;;21.60;89.90;;;;;;5031278;28;20571;-76
2022/07/16 06:32:28;;;;;;;2.73;1.23;;;21.70;89.60;;;;;;5031444;28;20162;-76
2022/07/16 06:34:54;;;;;;;1.90;1.00;;;21.70;89.30;;;;;;5031373;28;20624;-77
2022/07/16 06:37:20;;;;;;;2.87;1.27;;;21.80;89.40;;;;;;5030840;28;20181;-76
2022/07/16 06:39:46;;;;;;;2.20;0.93;;;21.80;88.80;;;;;;5031038;28;20193;-76
2022/07/16 06:42:11;;;;;;;6.63;1.00;;;21.90;88.60;;;;;;5031384;28;20161;-77
2022/07/16 06:44:40;;;;;;;3.60;1.30;;;21.90;88.30;;;;;;5013222;28;20209;-76
2022/07/16 06:47:06;;;;;;;3.30;0.97;;;22.00;87.90;;;;;;5030047;28;20616;-77
2022/07/16 06:49:32;;;;;;;3.83;1.00;;;22.00;87.20;;;;;;5031140;28;20576;-76
2022/07/16 06:51:58;;;;;;;3.87;1.00;;;22.00;86.70;;;;;;5030967;28;20569;-76
2022/07/16 06:54:24;;;;;;;3.37;1.50;;;22.00;86.40;;;;;;5030512;28;20205;-76
2022/07/16 06:56:49;;;;;;;3.83;1.20;;;22.00;86.40;;;;;;5031002;28;20630;-76
2022/07/16 06:59:15;;;;;;;5.93;1.57;;;22.10;86.50;;;;;;5031089;28;20634;-76
2022/07/16 07:01:41;;;;;;;3.50;1.03;;;22.10;86.50;;;;;;5033319;28;20181;-76
2022/07/16 07:04:07;;;;;;;2.97;1.33;;;22.10;86.50;;;;;;5034323;28;22211;-76
2022/07/16 07:06:33;;;;;;;4.27;1.03;;;22.20;86.80;;;;;;5034845;28;20188;-76
2022/07/16 07:08:59;;;;;;;3.53;0.97;;;22.30;87.00;;;;;;5034943;28;21035;-76
2022/07/16 07:11:25;;;;;;;2.97;1.20;;;22.50;87.80;;;;;;5033576;28;20556;-76
2022/07/16 07:13:51;;;;;;;1.90;1.20;;;22.80;88.60;;;;;;5035886;28;20649;-76
2022/07/16 07:16:17;;;;;;;4.97;1.20;;;23.20;88.80;;;;;;5034159;28;20174;-76
2022/07/16 07:18:43;;;;;;;4.03;2.03;;;23.60;89.40;;;;;;5034807;28;20169;-76
2022/07/16 07:21:09;;;;;;;3.23;1.67;;;24.30;90.60;;;;;;5034664;28;20576;-76
2022/07/16 07:23:35;;;;;;;6.07;2.00;;;25.10;90.60;;;;;;5034906;28;20577;-76
2022/07/16 07:26:01;;;;;;;2.00;1.17;;;25.90;90.30;;;;;;5034249;28;20687;-76
2022/07/16 07:28:28;;;;;;;5.70;2.03;;;26.50;88.80;;;;;;5033527;28;20653;-77
2022/07/16 07:30:55;;;;;;;3.17;1.90;;;26.90;86.40;;;;;;5034308;28;20231;-77
2022/07/16 07:33:20;;;;;;;3.90;1.80;;;27.30;84.30;;;;;;5034701;28;20632;-77
2022/07/16 07:35:46;;;;;;;2.87;1.27;;;27.60;83.30;;;;;;5033924;28;20596;-76
2022/07/16 07:38:12;;;;;;;3.03;2.20;;;28.10;83.30;;;;;;5016800;28;20551;-77
2022/07/16 07:40:38;;;;;;;3.10;1.57;;;28.60;81.10;;;;;;5034352;28;20556;-76
2022/07/16 07:43:04;;;;;;;3.73;1.30;;;29.00;79.90;;;;;;5034592;28;20170;-76
2022/07/16 07:45:30;;;;;;;2.60;1.80;;;29.60;79.00;;;;;;5033772;28;20189;-76
2022/07/16 07:47:56;;;;;;;3.10;1.83;;;30.20;78.80;;;;;;5033356;28;20935;-77
2022/07/16 07:50:22;;;;;;;4.00;1.60;;;31.10;78.20;;;;;;5034644;28;20564;-77
2022/07/16 07:52:48;;;;;;;2.70;1.50;;;31.80;75.70;;;;;;5033056;28;20178;-76
2022/07/16 07:55:14;;;;;;;3.57;1.90;;;32.30;72.90;;;;;;5033651;28;20642;-77
2022/07/16 07:57:40;;;;;;;4.37;1.57;;;32.70;69.90;;;;;;5049650;28;20568;-77
2022/07/16 08:00:08;;;;;;;3.10;1.80;;;32.90;66.40;;;;;;5033800;28;20702;-76
2022/07/16 08:02:42;;;;;;;2.90;1.40;;;32.90;64.30;;;;;;5034162;28;20166;-77
2022/07/16 08:05:09;;;;;;;3.67;2.50;;;32.90;63.00;;;;;;5033371;28;20604;-77
2022/07/16 08:07:35;;;;;;;3.70;1.87;;;32.70;60.70;;;;;;5032920;28;20706;-77
2022/07/16 08:10:01;;;;;;;3.53;1.70;;;32.60;59.80;;;;;;5033753;28;21028;-77
2022/07/16 08:12:27;;;;;;;2.43;1.50;;;32.50;60.20;;;;;;5032842;28;20646;-76
2022/07/16 08:14:53;;;;;;;4.03;2.10;;;32.70;60.60;;;;;;5033121;28;20659;-76
2022/07/16 08:17:19;;;;;;;2.57;1.87;;;33.00;59.50;;;;;;5033780;28;20581;-76
2022/07/16 08:19:45;;;;;;;3.10;2.00;;;33.20;58.90;;;;;;5033611;28;20652;-77
2022/07/16 08:22:11;;;;;;;2.73;1.70;;;33.40;58.20;;;;;;5032711;28;20586;-76
2022/07/16 08:27:21;;;;;;;2.40;1.30;;;33.90;56.70;;;;;;5033662;28;20615;-76
2022/07/16 08:29:47;;;;;;;3.50;1.43;;;34.10;55.90;;;;;;5033222;28;20602;-76
2022/07/16 08:32:13;;;;;;;2.10;1.43;;;33.70;54.40;;;;;;5032921;28;20319;-77
2022/07/16 08:34:39;;;;;;;3.13;1.40;;;33.30;53.50;;;;;;5032364;28;20212;-76
2022/07/16 08:37:08;;;;;;;3.20;1.63;;;32.70;53.00;;;;;;5033125;28;20653;-76
2022/07/16 08:39:38;;;;;;;2.13;1.47;;;32.20;53.60;;;;;;5033417;28;20603;-76
2022/07/16 08:42:04;;;;;;;1.80;1.30;;;32.10;54.70;;;;;;5033102;28;20566;-76
2022/07/16 08:44:31;;;;;;;3.30;1.33;;;31.90;54.90;;;;;;5032940;28;20593;-76
2022/07/16 08:46:57;;;;;;;1.80;1.03;;;31.70;54.60;;;;;;5033291;28;20564;-76
2022/07/16 08:49:25;;;;;;;1.67;1.07;;;31.40;54.40;;;;;;5033437;28;20579;-76
2022/07/16 08:51:54;;;;;;;1.63;0.90;;;30.90;54.00;;;;;;5033127;28;20561;-76
2022/07/16 08:54:20;;;;;;;3.43;1.27;;;30.50;54.20;;;;;;5032712;28;20659;-76
2022/07/16 08:56:48;;;;;;;3.03;1.50;;;30.10;54.50;;;;;;5032852;28;20560;-76
2022/07/16 08:59:14;;;;;;;2.27;1.10;;;29.90;55.00;;;;;;5031890;28;20568;-76
2022/07/16 09:01:40;;;;;;;3.00;1.10;;;29.60;55.20;;;;;;5033417;28;20563;-76
2022/07/16 09:04:06;;;;;;;2.20;0.97;;;29.30;55.40;;;;;;5032359;28;20574;-76
2022/07/16 09:06:32;;;;;;;2.80;1.10;;;28.90;55.60;;;;;;5032754;28;20568;-76
2022/07/16 09:08:58;;;;;;;3.20;1.13;;;28.60;55.90;;;;;;5032982;28;20181;-76
2022/07/16 09:11:33;;;;;;;3.43;1.03;;;28.20;56.30;;;;;;5032354;28;20176;-75
2022/07/16 09:14:02;;;;;;;1.50;0.90;;;27.80;56.80;;;;;;5032286;28;20619;-76
2022/07/16 09:16:32;;;;;;;2.47;0.90;;;27.50;57.10;;;;;;5032842;28;20568;-75
2022/07/16 09:19:13;;;;;;;4.60;1.00;;;27.30;58.40;;;;;;5031525;28;20917;-76
2022/07/16 09:22:00;;;;;;;2.60;0.97;;;27.20;58.60;;;;;;5032402;28;20618;-76
2022/07/16 09:24:44;;;;;;;2.20;1.13;;;27.10;58.90;;;;;;5031939;28;20592;-76
2022/07/16 09:27:18;;;;;;;2.33;1.00;;;26.90;58.60;;;;;;5030959;28;21550;-75
2022/07/16 09:29:51;;;;;;;2.27;1.00;;;26.80;58.80;;;;;;5032480;28;20914;-76
2022/07/16 09:32:34;;;;;;;4.33;0.97;;;26.60;59.20;;;;;;5032720;28;20576;-76
2022/07/16 09:35:14;;;;;;;2.83;1.10;;;26.50;59.60;;;;;;5031849;28;20632;-75
2022/07/16 09:37:57;;;;;;;1.53;0.87;;;26.40;59.90;;;;;;5031478;28;20564;-76
2022/07/16 09:40:41;;;;;;;2.13;1.40;;;26.40;60.50;;;;;;5032454;28;20565;-75
2022/07/16 09:43:13;;;;;;;1.50;0.90;;;26.50;60.40;;;;;;5041684;28;21145;-76
2022/07/16 09:45:57;;;;;;;1.63;0.90;;;26.50;60.50;;;;;;5050412;28;20591;-75
2022/07/16 09:48:25;;;;;;;3.20;1.10;;;26.60;60.30;;;;;;5047611;28;20949;-75
2022/07/16 09:50:52;;;;;;;2.03;0.90;;;26.60;60.50;;;;;;5031156;28;20560;-76
2022/07/16 09:53:21;;;;;;;2.03;1.00;;;26.80;60.70;;;;;;5032161;28;21167;-76
2022/07/16 09:56:18;;;;;;;1.93;1.00;;;27.00;60.60;;;;;;5031719;28;20596;-75
2022/07/16 09:58:51;;;;;;;3.10;1.63;;;27.50;62.00;;;;;;5031235;28;20588;-76
2022/07/16 10:01:18;;;;;;;2.47;1.00;;;28.20;61.80;;;;;;5031885;28;20955;-76
2022/07/16 10:03:45;;;;;;;2.00;0.90;;;28.80;60.50;;;;;;5032052;28;20596;-76
2022/07/16 10:06:11;;;;;;;2.40;1.40;;;29.10;58.90;;;;;;5031489;28;20625;-76
2022/07/16 10:08:39;;;;;;;1.53;0.90;;;29.30;57.80;;;;;;5030810;28;20581;-76
2022/07/16 10:11:06;;;;;;;1.60;1.17;;;29.50;56.90;;;;;;5031257;28;20573;-77
2022/07/16 10:13:33;;;;;;;1.30;0.60;;;29.70;56.10;;;;;;5031858;28;21000;-77
2022/07/16 10:15:59;;;;;;;1.90;0.70;;;29.70;54.70;;;;;;5032333;28;20949;-76
2022/07/16 10:18:32;;;;;;;1.50;0.70;;;29.70;54.90;;;;;;5031432;28;20571;-76
2022/07/16 10:21:07;;;;;;;1.70;0.60;;;29.70;54.20;;;;;;5031497;28;20567;-76
2022/07/16 10:23:34;;;;;;;1.53;0.60;;;29.70;53.70;;;;;;5031529;28;20575;-76
2022/07/16 10:26:04;;;;;;;1.33;0.60;;;29.90;54.30;;;;;;5030741;28;20604;-76
2022/07/16 10:28:55;;;;;;;2.10;0.70;;;30.50;55.20;;;;;;5031786;28;20566;-76
2022/07/16 10:31:31;;;;;;;1.90;0.53;;;31.20;54.90;;;;;;5031689;28;20572;-75
2022/07/16 10:34:32;;;;;;;1.80;0.60;;;31.60;53.20;;;;;;5031480;28;20662;-75
2022/07/16 10:36:59;;;;;;;1.43;0.70;;;31.80;53.20;;;;;;5014099;28;21157;-76
2022/07/16 10:39:26;;;;;;;2.20;0.60;;;31.90;51.60;;;;;;5046544;28;20599;-76
2022/07/16 10:41:59;;;;;;;1.63;0.50;;;31.90;50.80;;;;;;5030022;28;20579;-76
2022/07/16 10:44:42;;;;;;;1.97;0.70;;;32.00;50.70;;;;;;5031054;28;20604;-76
2022/07/16 10:47:08;;;;;;;1.60;0.70;;;32.30;51.20;;;;;;5031541;28;20623;-76
2022/07/16 10:49:34;;;;;;;1.47;0.70;;;32.60;50.40;;;;;;5031642;28;20603;-76
2022/07/16 10:52:08;;;;;;;1.50;0.60;;;32.80;50.60;;;;;;5030387;28;20700;-76
2022/07/16 10:54:42;;;;;;;1.70;0.60;;;33.20;50.40;;;;;;5030555;28;20283;-76
2022/07/16 10:57:09;;;;;;;1.60;0.70;;;33.60;49.20;;;;;;5030206;28;20955;-76
2022/07/16 10:59:40;;;;;;;1.40;0.60;;;34.00;49.60;;;;;;5031188;28;20570;-76
2022/07/16 11:02:11;;;;;;;1.57;0.70;;;34.40;48.60;;;;;;5031334;28;20729;-76
2022/07/16 11:04:41;;;;;;;2.67;0.97;;;34.70;48.50;;;;;;5031039;28;21167;-76
2022/07/16 11:07:12;;;;;;;1.40;0.60;;;35.00;48.00;;;;;;5030510;28;20612;-76
2022/07/16 11:09:40;;;;;;;1.40;0.60;;;35.00;46.00;;;;;;5029949;28;20575;-76
2022/07/16 11:12:12;;;;;;;1.43;0.50;;;34.80;45.40;;;;;;5030346;28;20581;-76
2022/07/16 11:14:40;;;;;;;1.30;0.60;;;34.60;44.20;;;;;;5031104;28;21038;-76
2022/07/16 11:17:06;;;;;;;1.67;0.70;;;34.70;45.10;;;;;;5031550;28;20578;-76
2022/07/16 11:19:42;;;;;;;1.80;0.90;;;34.70;45.30;;;;;;5031536;28;20560;-77
2022/07/16 11:22:10;;;;;;;2.63;0.70;;;34.80;44.10;;;;;;5032621;28;20891;-76
2022/07/16 11:24:46;;;;;;;1.90;0.80;;;34.70;43.90;;;;;;5032175;28;20709;-76
2022/07/16 11:27:12;;;;;;;2.60;0.50;;;34.50;42.50;;;;;;5016447;28;20978;-76
2022/07/16 11:29:38;;;;;;;1.50;0.60;;;34.10;41.60;;;;;;5030705;28;20577;-76
2022/07/16 11:32:04;;;;;;;2.67;0.60;;;33.60;41.40;;;;;;5030992;28;20188;-76
2022/07/16 11:34:34;;;;;;;4.23;1.50;;;33.20;42.20;;;;;;5030319;28;20761;-76
2022/07/16 11:37:00;;;;;;;1.90;0.80;;;33.00;42.50;;;;;;5030655;28;20564;-76
2022/07/16 11:39:28;;;;;;;3.07;0.77;;;32.90;43.00;;;;;;5031045;28;20620;-76
2022/07/16 11:41:56;;;;;;;1.30;0.60;;;33.00;43.30;;;;;;5030726;28;20566;-76
2022/07/16 11:44:24;;;;;;;1.67;0.63;;;33.10;43.10;;;;;;5045658;28;20620;-75
2022/07/16 11:46:52;;;;;;;1.63;0.60;;;33.30;43.20;;;;;;5013128;28;20977;-77
2022/07/16 11:49:42;;;;;;;1.67;0.67;;;33.50;43.00;;;;;;5034390;28;20672;-76
2022/07/16 11:52:24;;;;;;;4.73;1.17;;;33.60;42.70;;;;;;5026546;28;20661;-76
2022/07/16 11:54:52;;;;;;;1.83;0.90;;;33.80;42.60;;;;;;5033793;28;21161;-76
2022/07/16 11:57:18;;;;;;;1.40;0.60;;;33.90;41.50;;;;;;5034218;28;20569;-76
2022/07/16 11:59:55;;;;;;;1.40;0.60;;;33.90;41.90;;;;;;5032664;28;20631;-76
2022/07/16 12:02:26;;;;;;;1.90;0.60;;;33.90;41.40;;;;;;5034252;28;20619;-76
2022/07/16 12:04:55;;;;;;;2.40;0.60;;;33.90;41.10;;;;;;5034498;28;21010;-76
2022/07/16 12:07:28;;;;;;;1.70;0.63;;;33.80;40.50;;;;;;5034239;28;20587;-76
2022/07/16 12:09:57;;;;;;;1.40;0.70;;;33.40;40.00;;;;;;5033799;28;20575;-76
2022/07/16 12:12:28;;;;;;;1.70;0.70;;;33.10;40.30;;;;;;5032726;28;20894;-76
2022/07/16 12:14:56;;;;;;;1.83;0.70;;;32.90;41.20;;;;;;5031948;28;20995;-76
2022/07/16 12:17:41;;;;;;;2.63;1.47;;;32.80;40.80;;;;;;5034058;28;20566;-76
2022/07/16 12:20:13;;;;;;;1.60;1.00;;;32.60;40.70;;;;;;5033393;28;20564;-76
2022/07/16 12:23:02;;;;;;;1.93;0.60;;;32.40;40.70;;;;;;5033907;28;20595;-76
2022/07/16 12:25:45;;;;;;;4.13;0.80;;;32.20;40.70;;;;;;5021567;28;20720;-76
2022/07/16 12:28:11;;;;;;;2.07;0.70;;;31.90;40.50;;;;;;5033921;28;20599;-76
2022/07/16 12:30:40;;;;;;;1.53;0.70;;;31.60;40.20;;;;;;5031996;28;20604;-76
2022/07/16 12:33:09;;;;;;;2.27;0.60;;;31.20;40.00;;;;;;5033711;28;20857;-76
2022/07/16 12:35:43;;;;;;;2.80;0.70;;;30.90;40.50;;;;;;5032866;28;20584;-76
2022/07/16 12:38:48;;;;;;;2.43;1.30;;;30.70;40.70;;;;;;5033789;28;20571;-75
2022/07/16 12:41:43;;;;;;;2.17;0.80;;;30.50;41.10;;;;;;5032350;28;21128;-76
2022/07/16 12:44:14;;;;;;;2.20;0.70;;;30.40;41.60;;;;;;5022739;28;21323;-76
2022/07/16 12:46:44;;;;;;;1.80;0.70;;;30.40;41.80;;;;;;5033615;28;20671;-76
2022/07/16 12:49:13;;;;;;;3.07;0.80;;;30.40;42.10;;;;;;5033140;28;20651;-76
2022/07/16 12:51:42;;;;;;;1.87;0.70;;;30.50;42.30;;;;;;5031808;28;20658;-76
2022/07/16 12:54:09;;;;;;;1.40;0.63;;;30.50;42.20;;;;;;5032605;28;21169;-76
2022/07/16 12:59:21;;;;;;;1.83;0.70;;;30.30;41.30;;;;;;5032543;28;20572;-76
2022/07/16 13:01:47;;;;;;;2.30;0.83;;;30.00;40.90;;;;;;5032769;28;20569;-76
2022/07/16 13:04:14;;;;;;;2.33;0.60;;;29.70;40.90;;;;;;5047600;28;20624;-76
2022/07/16 13:06:40;;;;;;;3.20;0.70;;;29.40;41.20;;;;;;5032996;28;20568;-76